sensor_id;sensor_type;location;lat;lon;timestamp;pressure;altitude;pressure_sealevel;temperature;humidity
52983;BME280;48698;45.736;13.926;2023-09-19T00:02:59;97437.66;;;20.64;100.00
52983;BME280;48698;45.736;13.926;2023-09-19T00:08:03;97432.78;;;20.77;100.00
52983;BME280;48698;45.736;13.926;2023-09-19T00:13:07;97430.22;;;20.76;100.00
52983;BME280;48698;45.736;13.926;2023-09-19T00:18:13;97389.94;;;20.55;100.00
52983;BME280;48698;45.736;13.926;2023-09-19T00:23:20;97407.22;;;20.72;100.00
52983;BME280;48698;45.736;13.926;2023-09-19T00:28:23;97416.19;;;20.72;100.00
52983;BME280;48698;45.736;13.926;2023-09-19T00:33:27;97420.19;;;20.68;100.00
52983;BME280;48698;45.736;13.926;2023-09-19T00:38:32;97400.47;;;20.48;100.00
52983;BME280;48698;45.736;13.926;2023-09-19T00:43:36;97415.78;;;20.67;100.00
52983;BME280;48698;45.736;13.926;2023-09-19T00:48:40;97418.22;;;20.60;100.00
52983;BME280;48698;45.736;13.926;2023-09-19T00:53:47;97399.34;;;20.51;100.00
52983;BME280;48698;45.736;13.926;2023-09-19T00:58:50;97386.16;;;20.48;100.00
52983;BME280;48698;45.736;13.926;2023-09-19T01:03:54;97364.19;;;20.33;100.00
52983;BME280;48698;45.736;13.926;2023-09-19T01:08:57;97410.38;;;20.67;100.00
52983;BME280;48698;45.736;13.926;2023-09-19T01:14:44;97394.78;;;20.61;100.00
52983;BME280;48698;45.736;13.926;2023-09-19T01:30:35;97357.31;;;20.48;100.00
52983;BME280;48698;45.736;13.926;2023-09-19T01:35:45;97375.78;;;20.53;100.00
52983;BME280;48698;45.736;13.926;2023-09-19T01:40:57;97406.38;;;20.81;100.00
52983;BME280;48698;45.736;13.926;2023-09-19T01:46:14;97409.38;;;20.78;100.00
52983;BME280;48698;45.736;13.926;2023-09-19T01:51:22;97411.50;;;20.74;100.00
52983;BME280;48698;45.736;13.926;2023-09-19T01:56:34;97386.56;;;20.53;100.00
52983;BME280;48698;45.736;13.926;2023-09-19T02:01:42;97359.06;;;20.40;100.00
52983;BME280;48698;45.736;13.926;2023-09-19T02:06:48;97387.81;;;20.58;100.00
52983;BME280;48698;45.736;13.926;2023-09-19T02:11:51;97411.22;;;20.77;100.00
52983;BME280;48698;45.736;13.926;2023-09-19T02:16:55;97342.59;;;20.33;100.00
52983;BME280;48698;45.736;13.926;2023-09-19T02:22:00;97286.78;;;19.87;100.00
52983;BME280;48698;45.736;13.926;2023-09-19T02:27:06;97410.69;;;20.64;100.00
52983;BME280;48698;45.736;13.926;2023-09-19T02:32:11;97346.28;;;20.23;100.00
52983;BME280;48698;45.736;13.926;2023-09-19T02:37:14;97330.00;;;20.15;100.00
52983;BME280;48698;45.736;13.926;2023-09-19T02:42:19;97342.34;;;20.27;100.00
52983;BME280;48698;45.736;13.926;2023-09-19T02:47:22;97406.41;;;20.71;100.00
52983;BME280;48698;45.736;13.926;2023-09-19T02:52:26;97407.78;;;20.75;100.00
52983;BME280;48698;45.736;13.926;2023-09-19T02:57:29;97400.03;;;20.62;100.00
52983;BME280;48698;45.736;13.926;2023-09-19T03:02:36;97388.03;;;20.38;100.00
52983;BME280;48698;45.736;13.926;2023-09-19T03:07:41;97371.84;;;20.38;100.00
52983;BME280;48698;45.736;13.926;2023-09-19T03:12:47;97384.88;;;20.42;100.00
52983;BME280;48698;45.736;13.926;2023-09-19T03:17:50;97387.72;;;20.41;100.00
52983;BME280;48698;45.736;13.926;2023-09-19T03:22:56;97374.13;;;20.13;100.00
52983;BME280;48698;45.736;13.926;2023-09-19T03:28:00;97399.66;;;20.29;100.00
52983;BME280;48698;45.736;13.926;2023-09-19T03:33:04;97232.75;;;19.02;100.00
52983;BME280;48698;45.736;13.926;2023-09-19T03:38:07;97340.53;;;19.50;100.00
52983;BME280;48698;45.736;13.926;2023-09-19T03:43:11;97411.44;;;19.80;100.00
52983;BME280;48698;45.736;13.926;2023-09-19T03:48:14;97184.03;;;18.37;100.00
52983;BME280;48698;45.736;13.926;2023-09-19T03:53:18;97330.41;;;19.33;100.00
52983;BME280;48698;45.736;13.926;2023-09-19T03:58:21;97340.50;;;19.41;100.00
52983;BME280;48698;45.736;13.926;2023-09-19T04:03:24;97299.91;;;19.14;100.00
52983;BME280;48698;45.736;13.926;2023-09-19T04:08:38;97415.13;;;19.88;100.00
52983;BME280;48698;45.736;13.926;2023-09-19T04:13:42;97353.56;;;19.55;100.00
52983;BME280;48698;45.736;13.926;2023-09-19T04:18:46;97374.84;;;19.58;100.00
52983;BME280;48698;45.736;13.926;2023-09-19T04:23:49;97429.59;;;19.97;100.00
52983;BME280;48698;45.736;13.926;2023-09-19T04:28:52;97231.47;;;18.87;100.00
52983;BME280;48698;45.736;13.926;2023-09-19T04:33:56;97429.75;;;20.05;100.00
52983;BME280;48698;45.736;13.926;2023-09-19T04:39:00;97276.22;;;18.88;100.00
52983;BME280;48698;45.736;13.926;2023-09-19T04:44:05;97447.31;;;19.80;100.00
52983;BME280;48698;45.736;13.926;2023-09-19T04:49:08;97444.88;;;19.58;100.00
52983;BME280;48698;45.736;13.926;2023-09-19T04:54:12;97359.75;;;18.87;100.00
52983;BME280;48698;45.736;13.926;2023-09-19T04:59:16;97459.41;;;19.46;100.00
52983;BME280;48698;45.736;13.926;2023-09-19T05:04:19;97246.56;;;17.99;100.00
52983;BME280;48698;45.736;13.926;2023-09-19T05:09:23;97470.00;;;19.38;100.00
52983;BME280;48698;45.736;13.926;2023-09-19T05:14:26;97470.25;;;19.25;100.00
52983;BME280;48698;45.736;13.926;2023-09-19T05:19:30;97473.03;;;19.44;100.00
52983;BME280;48698;45.736;13.926;2023-09-19T05:24:33;97472.06;;;19.45;100.00
52983;BME280;48698;45.736;13.926;2023-09-19T05:29:36;97480.59;;;19.30;100.00
52983;BME280;48698;45.736;13.926;2023-09-19T05:34:40;97480.44;;;19.52;100.00
52983;BME280;48698;45.736;13.926;2023-09-19T05:39:44;97475.09;;;19.62;100.00
52983;BME280;48698;45.736;13.926;2023-09-19T05:44:47;97478.47;;;19.54;100.00
52983;BME280;48698;45.736;13.926;2023-09-19T05:49:51;97457.53;;;19.37;100.00
52983;BME280;48698;45.736;13.926;2023-09-19T05:54:55;97404.38;;;18.89;100.00
52983;BME280;48698;45.736;13.926;2023-09-19T05:59:59;97479.69;;;19.40;100.00
52983;BME280;48698;45.736;13.926;2023-09-19T06:05:05;97430.28;;;19.21;100.00
52983;BME280;48698;45.736;13.926;2023-09-19T06:10:09;97467.16;;;19.39;100.00
52983;BME280;48698;45.736;13.926;2023-09-19T06:15:14;97466.59;;;19.36;100.00
52983;BME280;48698;45.736;13.926;2023-09-19T06:20:27;97403.34;;;19.21;100.00
52983;BME280;48698;45.736;13.926;2023-09-19T06:25:30;97464.91;;;19.94;100.00
52983;BME280;48698;45.736;13.926;2023-09-19T06:30:35;97463.94;;;20.24;100.00
52983;BME280;48698;45.736;13.926;2023-09-19T06:35:39;97492.47;;;20.74;100.00
52983;BME280;48698;45.736;13.926;2023-09-19T06:40:43;97507.13;;;21.08;100.00
52983;BME280;48698;45.736;13.926;2023-09-19T06:45:46;97479.44;;;21.06;100.00
52983;BME280;48698;45.736;13.926;2023-09-19T06:50:50;97316.22;;;20.27;100.00
52983;BME280;48698;45.736;13.926;2023-09-19T06:55:54;97450.78;;;21.33;100.00
52983;BME280;48698;45.736;13.926;2023-09-19T07:00:58;97296.69;;;20.52;100.00
52983;BME280;48698;45.736;13.926;2023-09-19T07:06:02;97279.50;;;20.53;100.00
52983;BME280;48698;45.736;13.926;2023-09-19T07:11:07;97478.22;;;21.92;100.00
52983;BME280;48698;45.736;13.926;2023-09-19T07:16:12;97494.47;;;22.10;100.00
52983;BME280;48698;45.736;13.926;2023-09-19T07:21:30;97515.50;;;22.34;100.00
52983;BME280;48698;45.736;13.926;2023-09-19T07:26:36;97458.38;;;22.19;100.00
52983;BME280;48698;45.736;13.926;2023-09-19T07:31:40;97520.28;;;22.75;100.00
52983;BME280;48698;45.736;13.926;2023-09-19T07:36:43;97459.81;;;22.49;100.00
52983;BME280;48698;45.736;13.926;2023-09-19T07:41:47;97372.25;;;22.32;100.00
52983;BME280;48698;45.736;13.926;2023-09-19T07:46:52;97547.56;;;23.43;100.00
52983;BME280;48698;45.736;13.926;2023-09-19T07:51:56;97329.25;;;21.86;100.00
52983;BME280;48698;45.736;13.926;2023-09-19T07:57:02;97529.94;;;22.95;100.00
52983;BME280;48698;45.736;13.926;2023-09-19T08:02:05;97515.03;;;22.74;100.00
52983;BME280;48698;45.736;13.926;2023-09-19T08:07:12;97547.72;;;23.24;100.00
52983;BME280;48698;45.736;13.926;2023-09-19T08:12:18;97406.13;;;22.19;100.00
52983;BME280;48698;45.736;13.926;2023-09-19T08:17:27;97384.72;;;22.25;100.00
52983;BME280;48698;45.736;13.926;2023-09-19T08:22:31;97558.81;;;23.56;100.00
52983;BME280;48698;45.736;13.926;2023-09-19T08:27:38;97272.97;;;22.25;100.00
52983;BME280;48698;45.736;13.926;2023-09-19T08:32:42;97527.81;;;24.00;100.00
52983;BME280;48698;45.736;13.926;2023-09-19T08:37:49;97375.19;;;22.90;100.00
52983;BME280;48698;45.736;13.926;2023-09-19T08:42:54;97497.09;;;23.50;100.00
52983;BME280;48698;45.736;13.926;2023-09-19T08:53:11;97490.19;;;22.07;100.00
52983;BME280;48698;45.736;13.926;2023-09-19T08:58:19;97422.56;;;21.45;100.00
52983;BME280;48698;45.736;13.926;2023-09-19T09:03:32;97408.75;;;22.28;100.00
52983;BME280;48698;45.736;13.926;2023-09-19T09:08:37;97427.28;;;22.41;100.00
52983;BME280;48698;45.736;13.926;2023-09-19T09:13:42;97282.84;;;20.65;100.00
52983;BME280;48698;45.736;13.926;2023-09-19T09:18:46;97392.16;;;21.16;100.00
52983;BME280;48698;45.736;13.926;2023-09-19T09:23:55;97459.84;;;21.04;100.00
52983;BME280;48698;45.736;13.926;2023-09-19T09:28:58;97601.19;;;21.32;100.00
52983;BME280;48698;45.736;13.926;2023-09-19T09:34:01;97373.69;;;19.51;100.00
52983;BME280;48698;45.736;13.926;2023-09-19T09:39:06;97560.13;;;20.13;100.00
52983;BME280;48698;45.736;13.926;2023-09-19T09:44:21;97572.03;;;20.01;100.00
52983;BME280;48698;45.736;13.926;2023-09-19T09:49:27;97579.16;;;19.72;100.00
52983;BME280;48698;45.736;13.926;2023-09-19T09:54:58;97554.63;;;19.35;100.00
52983;BME280;48698;45.736;13.926;2023-09-19T10:00:02;97564.38;;;19.57;100.00
52983;BME280;48698;45.736;13.926;2023-09-19T10:05:16;97638.75;;;19.28;100.00
52983;BME280;48698;45.736;13.926;2023-09-19T10:10:36;97642.97;;;18.14;100.00
52983;BME280;48698;45.736;13.926;2023-09-19T10:15:58;97611.56;;;18.69;100.00
52983;BME280;48698;45.736;13.926;2023-09-19T10:21:03;97622.16;;;18.70;100.00
52983;BME280;48698;45.736;13.926;2023-09-19T10:26:08;97668.16;;;19.20;100.00
52983;BME280;48698;45.736;13.926;2023-09-19T10:31:12;97672.31;;;19.95;100.00
52983;BME280;48698;45.736;13.926;2023-09-19T10:50:21;97572.28;;;20.77;100.00
52983;BME280;48698;45.736;13.926;2023-09-19T10:55:28;97553.25;;;20.59;100.00
52983;BME280;48698;45.736;13.926;2023-09-19T11:00:50;97478.19;;;21.65;100.00
52983;BME280;48698;45.736;13.926;2023-09-19T11:06:03;97553.22;;;22.53;100.00
52983;BME280;48698;45.736;13.926;2023-09-19T11:11:49;97576.59;;;22.72;100.00
52983;BME280;48698;45.736;13.926;2023-09-19T11:22:11;97523.56;;;23.04;100.00
52983;BME280;48698;45.736;13.926;2023-09-19T11:27:15;97481.38;;;23.28;100.00
52983;BME280;48698;45.736;13.926;2023-09-19T11:38:02;97440.91;;;23.00;100.00
52983;BME280;48698;45.736;13.926;2023-09-19T11:43:29;97505.28;;;23.32;100.00
52983;BME280;48698;45.736;13.926;2023-09-19T11:48:34;97479.00;;;23.25;100.00
52983;BME280;48698;45.736;13.926;2023-09-19T11:53:39;97449.56;;;23.63;100.00
52983;BME280;48698;45.736;13.926;2023-09-19T11:58:48;97524.38;;;23.90;100.00
52983;BME280;48698;45.736;13.926;2023-09-19T12:03:53;97526.38;;;24.14;100.00
52983;BME280;48698;45.736;13.926;2023-09-19T12:08:57;97528.59;;;24.27;100.00
52983;BME280;48698;45.736;13.926;2023-09-19T12:14:02;97495.69;;;24.22;100.00
52983;BME280;48698;45.736;13.926;2023-09-19T12:19:19;97529.13;;;24.38;100.00
52983;BME280;48698;45.736;13.926;2023-09-19T12:24:27;97531.06;;;24.94;100.00
52983;BME280;48698;45.736;13.926;2023-09-19T12:29:45;97529.00;;;24.56;100.00
52983;BME280;48698;45.736;13.926;2023-09-19T12:34:51;97504.38;;;24.41;100.00
52983;BME280;48698;45.736;13.926;2023-09-19T12:40:07;97505.59;;;24.87;100.00
52983;BME280;48698;45.736;13.926;2023-09-19T12:45:25;97544.59;;;24.70;100.00
52983;BME280;48698;45.736;13.926;2023-09-19T12:50:28;97536.69;;;25.09;100.00
52983;BME280;48698;45.736;13.926;2023-09-19T12:55:32;97470.25;;;24.79;100.00
52983;BME280;48698;45.736;13.926;2023-09-19T13:00:45;97539.88;;;25.29;100.00
52983;BME280;48698;45.736;13.926;2023-09-19T13:05:49;97535.81;;;25.25;100.00
52983;BME280;48698;45.736;13.926;2023-09-19T13:11:03;97501.16;;;24.54;100.00
52983;BME280;48698;45.736;13.926;2023-09-19T13:16:12;97480.78;;;24.50;100.00
52983;BME280;48698;45.736;13.926;2023-09-19T13:21:27;97472.00;;;24.72;100.00
52983;BME280;48698;45.736;13.926;2023-09-19T13:26:30;97461.47;;;24.45;100.00
52983;BME280;48698;45.736;13.926;2023-09-19T13:31:33;97531.06;;;25.02;100.00
52983;BME280;48698;45.736;13.926;2023-09-19T13:36:36;97415.50;;;24.19;100.00
52983;BME280;48698;45.736;13.926;2023-09-19T13:41:40;97496.59;;;24.79;100.00
52983;BME280;48698;45.736;13.926;2023-09-19T13:46:43;97491.66;;;24.58;100.00
52983;BME280;48698;45.736;13.926;2023-09-19T13:51:49;97375.06;;;24.08;100.00
52983;BME280;48698;45.736;13.926;2023-09-19T13:56:52;97538.88;;;25.13;100.00
52983;BME280;48698;45.736;13.926;2023-09-19T14:01:54;97328.78;;;23.69;100.00
52983;BME280;48698;45.736;13.926;2023-09-19T14:06:57;97435.84;;;24.55;100.00
52983;BME280;48698;45.736;13.926;2023-09-19T14:12:00;97518.81;;;25.31;100.00
52983;BME280;48698;45.736;13.926;2023-09-19T14:17:04;97539.84;;;25.53;100.00
52983;BME280;48698;45.736;13.926;2023-09-19T14:22:07;97363.25;;;24.25;100.00
52983;BME280;48698;45.736;13.926;2023-09-19T14:27:10;97420.75;;;24.69;100.00
52983;BME280;48698;45.736;13.926;2023-09-19T14:32:13;97413.28;;;24.55;100.00
52983;BME280;48698;45.736;13.926;2023-09-19T14:37:17;97532.03;;;25.50;100.00
52983;BME280;48698;45.736;13.926;2023-09-19T14:42:20;97510.97;;;25.36;100.00
52983;BME280;48698;45.736;13.926;2023-09-19T14:47:23;97529.66;;;25.31;100.00
52983;BME280;48698;45.736;13.926;2023-09-19T14:52:26;97348.81;;;23.92;100.00
52983;BME280;48698;45.736;13.926;2023-09-19T14:57:30;97520.84;;;24.64;100.00
52983;BME280;48698;45.736;13.926;2023-09-19T15:02:33;97503.22;;;24.52;100.00
52983;BME280;48698;45.736;13.926;2023-09-19T15:07:37;97493.84;;;24.46;100.00
52983;BME280;48698;45.736;13.926;2023-09-19T15:12:40;97425.13;;;24.30;100.00
52983;BME280;48698;45.736;13.926;2023-09-19T15:17:43;97464.84;;;24.39;100.00
52983;BME280;48698;45.736;13.926;2023-09-19T15:22:46;97366.22;;;23.90;100.00
52983;BME280;48698;45.736;13.926;2023-09-19T15:27:48;97303.47;;;23.44;100.00
52983;BME280;48698;45.736;13.926;2023-09-19T15:32:52;97434.09;;;24.06;100.00
52983;BME280;48698;45.736;13.926;2023-09-19T15:37:55;97476.72;;;24.54;100.00
52983;BME280;48698;45.736;13.926;2023-09-19T15:42:58;97541.09;;;24.86;100.00
52983;BME280;48698;45.736;13.926;2023-09-19T15:48:02;97552.44;;;24.81;100.00
52983;BME280;48698;45.736;13.926;2023-09-19T15:53:05;97500.84;;;24.49;100.00
52983;BME280;48698;45.736;13.926;2023-09-19T15:58:08;97516.69;;;24.19;100.00
52983;BME280;48698;45.736;13.926;2023-09-19T16:03:11;97515.97;;;24.01;100.00
52983;BME280;48698;45.736;13.926;2023-09-19T16:08:13;97453.72;;;23.42;100.00
52983;BME280;48698;45.736;13.926;2023-09-19T16:13:16;97383.38;;;22.98;100.00
52983;BME280;48698;45.736;13.926;2023-09-19T16:18:19;97538.47;;;23.86;100.00
52983;BME280;48698;45.736;13.926;2023-09-19T16:23:22;97565.53;;;24.19;100.00
52983;BME280;48698;45.736;13.926;2023-09-19T16:28:25;97570.53;;;23.64;100.00
52983;BME280;48698;45.736;13.926;2023-09-19T16:33:29;97531.00;;;23.02;100.00
52983;BME280;48698;45.736;13.926;2023-09-19T16:38:31;97584.84;;;23.05;100.00
52983;BME280;48698;45.736;13.926;2023-09-19T16:43:34;97471.03;;;22.19;100.00
52983;BME280;48698;45.736;13.926;2023-09-19T16:48:41;97601.13;;;22.70;100.00
52983;BME280;48698;45.736;13.926;2023-09-19T16:54:04;97531.59;;;21.90;100.00
52983;BME280;48698;45.736;13.926;2023-09-19T16:59:06;97337.13;;;20.89;100.00
52983;BME280;48698;45.736;13.926;2023-09-19T17:04:09;97517.25;;;21.80;100.00
52983;BME280;48698;45.736;13.926;2023-09-19T17:09:12;97413.78;;;21.06;100.00
52983;BME280;48698;45.736;13.926;2023-09-19T17:14:16;97339.75;;;20.25;100.00
52983;BME280;48698;45.736;13.926;2023-09-19T17:19:20;97570.00;;;21.57;100.00
52983;BME280;48698;45.736;13.926;2023-09-19T17:24:25;97597.75;;;21.49;100.00
52983;BME280;48698;45.736;13.926;2023-09-19T17:29:27;97603.53;;;21.18;100.00
52983;BME280;48698;45.736;13.926;2023-09-19T17:34:30;97524.81;;;20.84;100.00
52983;BME280;48698;45.736;13.926;2023-09-19T17:39:33;97592.59;;;21.09;100.00
52983;BME280;48698;45.736;13.926;2023-09-19T17:44:36;97593.16;;;20.94;100.00
52983;BME280;48698;45.736;13.926;2023-09-19T17:49:40;97612.34;;;20.81;100.00
52983;BME280;48698;45.736;13.926;2023-09-19T17:54:44;97628.94;;;20.86;100.00
52983;BME280;48698;45.736;13.926;2023-09-19T17:59:47;97549.84;;;20.38;100.00
52983;BME280;48698;45.736;13.926;2023-09-19T18:04:50;97613.75;;;20.66;100.00
52983;BME280;48698;45.736;13.926;2023-09-19T18:09:55;97618.56;;;20.53;100.00
52983;BME280;48698;45.736;13.926;2023-09-19T18:15:01;97648.13;;;20.74;100.00
52983;BME280;48698;45.736;13.926;2023-09-19T18:20:04;97627.41;;;20.74;100.00
52983;BME280;48698;45.736;13.926;2023-09-19T18:25:07;97654.78;;;20.60;100.00
52983;BME280;48698;45.736;13.926;2023-09-19T18:30:10;97653.81;;;20.61;100.00
52983;BME280;48698;45.736;13.926;2023-09-19T18:35:13;97655.06;;;20.57;100.00
52983;BME280;48698;45.736;13.926;2023-09-19T18:40:17;97587.47;;;19.99;100.00
52983;BME280;48698;45.736;13.926;2023-09-19T18:45:20;97653.06;;;20.49;100.00
52983;BME280;48698;45.736;13.926;2023-09-19T18:50:39;97656.06;;;20.16;100.00
52983;BME280;48698;45.736;13.926;2023-09-19T18:55:44;97656.44;;;20.32;100.00
52983;BME280;48698;45.736;13.926;2023-09-19T19:00:48;97669.91;;;20.32;100.00
52983;BME280;48698;45.736;13.926;2023-09-19T19:05:53;97647.69;;;20.19;100.00
52983;BME280;48698;45.736;13.926;2023-09-19T19:10:56;97693.41;;;20.21;100.00
52983;BME280;48698;45.736;13.926;2023-09-19T19:16:00;97667.50;;;19.99;100.00
52983;BME280;48698;45.736;13.926;2023-09-19T19:21:04;97713.00;;;19.92;100.00
52983;BME280;48698;45.736;13.926;2023-09-19T19:26:10;97710.31;;;19.92;100.00
52983;BME280;48698;45.736;13.926;2023-09-19T19:31:14;97700.94;;;19.66;100.00
52983;BME280;48698;45.736;13.926;2023-09-19T19:36:17;97696.22;;;19.38;100.00
52983;BME280;48698;45.736;13.926;2023-09-19T19:41:19;97736.38;;;19.41;100.00
52983;BME280;48698;45.736;13.926;2023-09-19T19:46:23;97721.47;;;19.26;100.00
52983;BME280;48698;45.736;13.926;2023-09-19T19:51:27;97733.97;;;19.27;100.00
52983;BME280;48698;45.736;13.926;2023-09-19T19:56:31;97745.97;;;19.02;100.00
52983;BME280;48698;45.736;13.926;2023-09-19T20:01:36;97700.31;;;18.69;100.00
52983;BME280;48698;45.736;13.926;2023-09-19T20:06:40;97757.88;;;18.77;100.00
52983;BME280;48698;45.736;13.926;2023-09-19T20:11:44;97685.28;;;18.66;100.00
52983;BME280;48698;45.736;13.926;2023-09-19T20:16:48;97746.97;;;18.90;100.00
52983;BME280;48698;45.736;13.926;2023-09-19T20:21:50;97758.50;;;18.70;100.00
52983;BME280;48698;45.736;13.926;2023-09-19T20:26:53;97733.25;;;18.50;100.00
52983;BME280;48698;45.736;13.926;2023-09-19T20:31:59;97757.06;;;18.43;100.00
52983;BME280;48698;45.736;13.926;2023-09-19T20:37:02;97739.63;;;18.16;100.00
52983;BME280;48698;45.736;13.926;2023-09-19T20:42:05;97703.94;;;17.69;100.00
52983;BME280;48698;45.736;13.926;2023-09-19T20:47:08;97743.53;;;17.89;100.00
52983;BME280;48698;45.736;13.926;2023-09-19T20:52:12;97755.00;;;18.14;100.00
52983;BME280;48698;45.736;13.926;2023-09-19T20:57:16;97755.22;;;18.33;100.00
52983;BME280;48698;45.736;13.926;2023-09-19T21:02:18;97734.00;;;18.19;100.00
52983;BME280;48698;45.736;13.926;2023-09-19T21:07:21;97755.22;;;18.33;100.00
52983;BME280;48698;45.736;13.926;2023-09-19T21:12:26;97777.66;;;17.65;100.00
52983;BME280;48698;45.736;13.926;2023-09-19T21:17:29;97753.19;;;17.46;100.00
52983;BME280;48698;45.736;13.926;2023-09-19T21:22:32;97746.19;;;17.43;100.00
52983;BME280;48698;45.736;13.926;2023-09-19T21:27:35;97737.09;;;17.57;100.00
52983;BME280;48698;45.736;13.926;2023-09-19T21:32:38;97771.31;;;17.77;100.00
52983;BME280;48698;45.736;13.926;2023-09-19T21:37:41;97792.34;;;17.72;100.00
52983;BME280;48698;45.736;13.926;2023-09-19T21:42:44;97785.13;;;17.84;100.00
52983;BME280;48698;45.736;13.926;2023-09-19T21:47:48;97774.03;;;17.88;100.00
52983;BME280;48698;45.736;13.926;2023-09-19T21:52:51;97723.81;;;17.55;100.00
52983;BME280;48698;45.736;13.926;2023-09-19T21:57:57;97771.69;;;17.84;100.00
52983;BME280;48698;45.736;13.926;2023-09-19T22:03:02;97763.41;;;17.41;100.00
52983;BME280;48698;45.736;13.926;2023-09-19T22:08:06;97774.91;;;17.54;100.00
52983;BME280;48698;45.736;13.926;2023-09-19T22:13:10;97753.56;;;17.18;100.00
52983;BME280;48698;45.736;13.926;2023-09-19T22:18:15;97789.03;;;17.45;100.00
52983;BME280;48698;45.736;13.926;2023-09-19T22:23:23;97783.97;;;17.53;100.00
52983;BME280;48698;45.736;13.926;2023-09-19T22:28:35;97789.50;;;17.63;100.00
52983;BME280;48698;45.736;13.926;2023-09-19T22:33:38;97758.16;;;17.39;100.00
52983;BME280;48698;45.736;13.926;2023-09-19T22:38:42;97755.81;;;17.35;100.00
52983;BME280;48698;45.736;13.926;2023-09-19T22:43:47;97778.50;;;17.07;100.00
52983;BME280;48698;45.736;13.926;2023-09-19T22:48:51;97795.94;;;17.25;100.00
52983;BME280;48698;45.736;13.926;2023-09-19T22:53:53;97785.34;;;17.35;100.00
52983;BME280;48698;45.736;13.926;2023-09-19T22:59:02;97789.53;;;17.50;100.00
52983;BME280;48698;45.736;13.926;2023-09-19T23:04:08;97700.53;;;16.97;100.00
52983;BME280;48698;45.736;13.926;2023-09-19T23:09:15;97747.88;;;16.75;100.00
52983;BME280;48698;45.736;13.926;2023-09-19T23:14:24;97798.72;;;17.24;100.00
52983;BME280;48698;45.736;13.926;2023-09-19T23:19:36;97794.50;;;17.32;100.00
52983;BME280;48698;45.736;13.926;2023-09-19T23:24:40;97791.09;;;17.41;100.00
52983;BME280;48698;45.736;13.926;2023-09-19T23:29:44;97805.72;;;17.61;100.00
52983;BME280;48698;45.736;13.926;2023-09-19T23:34:47;97757.53;;;17.36;100.00
52983;BME280;48698;45.736;13.926;2023-09-19T23:40:04;97622.88;;;16.61;100.00
52983;BME280;48698;45.736;13.926;2023-09-19T23:45:12;97550.78;;;16.11;100.00
52983;BME280;48698;45.736;13.926;2023-09-19T23:50:16;97803.69;;;17.17;100.00
52983;BME280;48698;45.736;13.926;2023-09-19T23:55:19;97806.09;;;17.09;100.00
